4CO2 weather

Owl Canyon Gliderport
Wellington, Colorado, United States

Public forecast

Using degrees Fahrenheit for public forecast. Weather courtesy of forecast.io.

Closest aviation weather report (METAR) to Owl Canyon Gliderport

Closest report is Northern Colorado Regional Airport, 21.2 nm (39.3 km) S. Retrieved 2019/10/23 14:56 UTC (18 minutes ago):

KFNL 231456Z AUTO 01009KT 10SM CLR 06/M01 A3008 RMK AO2 SLP164 T00561011 53017

Closest aviation forecast (TAF) to Owl Canyon Gliderport

Closest forecast is Cheyenne Regional Jerry Olson Field, 22.5 nm (41.6 km) NNE. Retrieved 2019/10/23 12:30 UTC (3 hours ago):

TAF KCYS 231128Z 2312/2412 33015KT 1SM -SN OVC008 FM231400 32030G40KT P6SM VCSH SCT050 BKN100 FM240000 36010KT P6SM VCSH OVC035